createdAt,value
2022-11-05T00:00:06.237Z,2.00
2022-11-05T00:02:51.818Z,2.25
2022-11-05T00:05:57.389Z,2.05
2022-11-05T00:08:42.838Z,1.90
2022-11-05T00:11:17.690Z,2.20
2022-11-05T00:14:04.066Z,2.08
2022-11-05T00:16:46.190Z,2.00
2022-11-05T00:19:14.819Z,2.30
2022-11-05T00:22:00.512Z,2.20
2022-11-05T00:24:46.245Z,2.30
2022-11-05T00:27:13.449Z,2.30
2022-11-05T00:29:40.577Z,2.40
2022-11-05T00:32:07.940Z,2.10
2022-11-05T00:34:35.069Z,2.40
2022-11-05T00:37:02.398Z,2.47
2022-11-05T00:39:29.567Z,2.40
2022-11-05T00:42:15.112Z,2.65
2022-11-05T00:45:00.961Z,2.53
2022-11-05T00:47:47.507Z,2.53
2022-11-05T00:50:14.892Z,2.40
2022-11-05T00:53:08.163Z,2.97
2022-11-05T00:55:38.115Z,2.80
2022-11-05T00:58:07.097Z,2.65
2022-11-05T01:00:35.196Z,2.88
2022-11-05T01:03:05.037Z,2.63
2022-11-05T01:05:32.510Z,3.10
2022-11-05T01:08:00.211Z,2.80
2022-11-05T01:10:27.635Z,3.00
2022-11-05T01:12:55.004Z,2.90
2022-11-05T01:15:22.211Z,2.78
2022-11-05T01:17:50.729Z,2.97
2022-11-05T01:20:18.184Z,2.63
2022-11-05T01:22:45.295Z,2.92
2022-11-05T01:25:12.488Z,2.40
2022-11-05T01:27:39.639Z,2.97
2022-11-05T01:30:08.147Z,2.90
2022-11-05T01:32:36.215Z,2.72
2022-11-05T01:35:05.517Z,3.17
2022-11-05T01:37:33.327Z,3.10
2022-11-05T01:40:00.476Z,2.40
2022-11-05T01:42:28.285Z,2.90
2022-11-05T01:44:59.667Z,2.97
2022-11-05T01:47:41.634Z,2.72
2022-11-05T01:50:30.235Z,2.28
2022-11-05T01:53:17.169Z,2.53
2022-11-05T01:56:03.607Z,2.63
2022-11-05T01:59:01.362Z,2.60
2022-11-05T02:01:28.670Z,2.38
2022-11-05T02:03:58.458Z,2.70
2022-11-05T02:06:25.716Z,2.53
2022-11-05T02:09:25.306Z,2.50
2022-11-05T02:11:52.497Z,2.55
2022-11-05T02:14:20.453Z,2.50
2022-11-05T02:17:08.385Z,2.78
2022-11-05T02:19:50.520Z,2.67
2022-11-05T02:22:38.768Z,2.30
2022-11-05T02:25:19.268Z,2.28
2022-11-05T02:28:11.438Z,2.70
2022-11-05T02:31:23.968Z,2.60
2022-11-05T02:33:59.858Z,2.42
2022-11-05T02:36:45.237Z,2.50
2022-11-05T02:39:48.357Z,2.50
2022-11-05T02:42:33.997Z,2.85
2022-11-05T02:45:20.171Z,2.35
2022-11-05T02:47:50.913Z,2.38
2022-11-05T02:50:36.052Z,2.53
2022-11-05T02:53:35.639Z,2.80
2022-11-05T02:56:04.460Z,2.60
2022-11-05T02:58:32.971Z,2.40
2022-11-05T03:01:01.862Z,2.42
2022-11-05T03:03:56.272Z,2.58
2022-11-05T03:06:42.510Z,2.80
2022-11-05T03:09:18.669Z,2.65
2022-11-05T03:11:58.275Z,2.45
2022-11-05T03:14:45.964Z,2.88
2022-11-05T03:17:20.087Z,3.20
2022-11-05T03:19:53.790Z,2.67
2022-11-05T03:22:25.841Z,2.90
2022-11-05T03:25:05.152Z,3.08
2022-11-05T03:27:34.621Z,2.97
2022-11-05T03:30:09.117Z,2.83
2022-11-05T03:32:39.138Z,3.00
2022-11-05T03:35:13.158Z,3.42
2022-11-05T03:37:40.825Z,3.35
2022-11-05T03:40:09.287Z,3.17
2022-11-05T03:42:38.021Z,3.30
2022-11-05T03:45:16.187Z,3.22
2022-11-05T03:47:44.028Z,3.25
2022-11-05T03:50:42.060Z,3.42
2022-11-05T03:53:18.547Z,3.60
2022-11-05T03:56:01.459Z,3.70
2022-11-05T03:58:28.617Z,3.60
2022-11-05T04:00:55.758Z,3.10
2022-11-05T04:03:23.051Z,3.20
2022-11-05T04:06:10.142Z,3.50
2022-11-05T04:08:55.648Z,3.20
2022-11-05T04:11:41.280Z,3.25
2022-11-05T04:14:08.418Z,3.22
2022-11-05T04:16:54.022Z,3.60
2022-11-05T04:19:41.131Z,3.75
2022-11-05T04:22:26.792Z,3.15
2022-11-05T04:24:54.262Z,3.58
2022-11-05T04:27:21.394Z,3.17
2022-11-05T04:30:06.872Z,3.80
2022-11-05T04:32:34.391Z,3.55
2022-11-05T04:35:01.674Z,3.70
2022-11-05T04:37:28.813Z,3.72
2022-11-05T04:39:55.959Z,3.97
2022-11-05T04:42:23.111Z,4.10
2022-11-05T04:44:50.247Z,3.88
2022-11-05T04:47:17.395Z,3.80
2022-11-05T04:49:44.552Z,3.90
2022-11-05T04:52:11.695Z,3.75
2022-11-05T04:54:38.842Z,4.45
2022-11-05T04:57:05.976Z,3.88
2022-11-05T04:59:33.110Z,4.03
2022-11-05T05:02:00.309Z,4.65
2022-11-05T05:04:27.670Z,4.30
2022-11-05T05:06:54.862Z,4.30
2022-11-05T05:09:22.273Z,4.45
2022-11-05T05:11:49.481Z,5.13
2022-11-05T05:14:16.623Z,4.55
2022-11-05T05:16:43.761Z,4.30
2022-11-05T05:19:10.868Z,4.60
2022-11-05T05:21:41.085Z,4.85
2022-11-05T05:24:16.813Z,4.57
2022-11-05T05:26:45.447Z,5.05
2022-11-05T05:29:12.769Z,5.65
2022-11-05T05:31:40.111Z,5.75
2022-11-05T05:34:07.730Z,5.88
2022-11-05T05:36:34.884Z,5.65
2022-11-05T05:39:04.490Z,5.70
2022-11-05T05:41:31.687Z,6.00
2022-11-05T05:43:58.842Z,5.70
2022-11-05T05:46:27.176Z,6.32
2022-11-05T05:48:54.361Z,6.40
2022-11-05T05:51:21.477Z,6.10
2022-11-05T05:53:48.668Z,6.60
2022-11-05T05:56:19.106Z,6.20
2022-11-05T05:58:46.499Z,6.10
2022-11-05T06:01:18.915Z,6.32
2022-11-05T06:03:47.798Z,6.63
2022-11-05T06:06:19.581Z,7.35
2022-11-05T06:08:47.367Z,7.60
2022-11-05T06:11:14.672Z,7.53
2022-11-05T06:13:42.014Z,6.80
2022-11-05T06:16:09.768Z,7.38
2022-11-05T06:18:37.007Z,6.80
2022-11-05T06:21:09.034Z,7.85
2022-11-05T06:23:36.837Z,7.90
2022-11-05T06:26:05.439Z,7.72
2022-11-05T06:28:33.489Z,8.20
2022-11-05T06:31:00.652Z,8.13
2022-11-05T06:33:27.879Z,7.63
2022-11-05T06:35:57.628Z,8.13
2022-11-05T06:38:24.779Z,8.50
2022-11-05T06:40:51.917Z,9.23
2022-11-05T06:43:19.266Z,9.27
2022-11-05T06:45:46.421Z,9.20
2022-11-05T06:48:13.559Z,8.45
2022-11-05T06:50:43.889Z,8.90
2022-11-05T06:53:11.309Z,8.30
2022-11-05T06:55:38.793Z,9.20
2022-11-05T06:58:06.423Z,9.60
2022-11-05T07:00:33.741Z,8.80
2022-11-05T07:03:08.648Z,9.73
2022-11-05T07:05:38.700Z,9.10
2022-11-05T07:08:05.999Z,9.40
2022-11-05T07:10:33.256Z,9.98
2022-11-05T07:13:05.055Z,9.98
2022-11-05T07:15:34.875Z,9.90
2022-11-05T07:18:02.304Z,10.30
2022-11-05T07:20:33.785Z,9.85
2022-11-05T07:23:02.774Z,9.75
2022-11-05T07:25:30.980Z,10.73
2022-11-05T07:27:58.261Z,10.30
2022-11-05T07:30:25.429Z,10.15
2022-11-05T07:32:52.650Z,9.98
2022-11-05T07:35:19.897Z,9.35
2022-11-05T07:37:50.738Z,10.18
2022-11-05T07:40:19.287Z,9.65
2022-11-05T07:42:53.553Z,9.35
2022-11-05T07:47:49.183Z,9.77
2022-11-05T07:50:17.626Z,8.57
2022-11-05T07:52:45.427Z,9.10
2022-11-05T07:55:13.262Z,9.40
2022-11-05T07:57:44.823Z,9.18
2022-11-05T08:00:14.201Z,8.73
2022-11-05T08:02:42.250Z,9.73
2022-11-05T08:05:09.929Z,10.70
2022-11-05T08:07:37.147Z,9.05
2022-11-05T08:10:04.839Z,9.35
2022-11-05T08:12:32.372Z,8.93
2022-11-05T08:14:59.538Z,8.90
2022-11-05T08:17:26.815Z,8.90
2022-11-05T08:19:54.033Z,8.98
2022-11-05T08:22:21.372Z,9.77
2022-11-05T08:24:48.589Z,10.02
2022-11-05T08:27:15.816Z,9.55
2022-11-05T08:29:43.096Z,10.52
2022-11-05T08:32:10.688Z,10.63
2022-11-05T08:34:37.858Z,11.05
2022-11-05T08:37:05.042Z,10.55
2022-11-05T08:39:32.212Z,9.93
2022-11-05T08:41:59.413Z,10.57
2022-11-05T08:44:26.555Z,10.98
2022-11-05T08:46:54.285Z,10.75
2022-11-05T08:49:21.558Z,9.80
2022-11-05T08:51:48.695Z,10.25
2022-11-05T08:54:15.821Z,9.20
2022-11-05T08:56:42.990Z,9.30
2022-11-05T08:59:10.443Z,9.23
2022-11-05T09:01:37.742Z,10.48
2022-11-05T09:04:05.082Z,9.15
2022-11-05T09:06:32.296Z,9.10
2022-11-05T09:08:59.475Z,9.23
2022-11-05T09:11:49.674Z,10.13
2022-11-05T09:14:13.697Z,9.93
2022-11-05T09:16:42.287Z,9.70
2022-11-05T09:19:09.477Z,8.98
2022-11-05T09:21:36.671Z,9.85
2022-11-05T09:24:04.396Z,9.68
2022-11-05T09:26:31.668Z,9.82
2022-11-05T09:28:58.841Z,9.27
2022-11-05T09:31:26.023Z,9.75
2022-11-05T09:33:53.408Z,9.25
2022-11-05T09:36:20.550Z,8.07
2022-11-05T09:38:47.778Z,8.40
2022-11-05T09:41:23.104Z,8.23
2022-11-05T09:44:03.160Z,8.15
2022-11-05T09:46:55.897Z,7.78
2022-11-05T09:49:28.185Z,7.00
2022-11-05T09:51:56.345Z,6.32
2022-11-05T09:54:26.164Z,5.40
2022-11-05T09:56:53.941Z,5.05
2022-11-05T09:59:36.873Z,4.70
2022-11-05T10:02:12.558Z,3.78
2022-11-05T10:04:39.865Z,3.83
2022-11-05T10:07:07.023Z,3.50
2022-11-05T10:09:45.115Z,3.38
2022-11-05T10:12:15.685Z,3.63
2022-11-05T10:14:52.132Z,3.88
2022-11-05T10:17:25.237Z,3.65
2022-11-05T10:20:16.383Z,3.50
2022-11-05T10:22:49.172Z,4.07
2022-11-05T10:25:21.109Z,3.83
2022-11-05T10:27:52.124Z,4.03
2022-11-05T10:30:19.666Z,4.03
2022-11-05T10:32:47.237Z,4.68
2022-11-05T10:35:18.642Z,4.05
2022-11-05T10:37:46.602Z,4.20
2022-11-05T10:40:38.405Z,4.10
2022-11-05T10:43:13.663Z,4.43
2022-11-05T10:45:53.259Z,4.47
2022-11-05T10:48:23.480Z,4.30
2022-11-05T10:50:50.745Z,4.53
2022-11-05T10:53:49.465Z,4.60
2022-11-05T10:56:32.290Z,4.30
2022-11-05T10:59:00.253Z,4.63
2022-11-05T11:01:27.845Z,4.40
2022-11-05T11:04:16.402Z,4.20
2022-11-05T11:06:48.246Z,3.92
2022-11-05T11:09:23.203Z,4.45
2022-11-05T11:12:02.993Z,4.55
2022-11-05T11:14:30.917Z,4.57
2022-11-05T11:17:16.939Z,4.35
2022-11-05T11:19:44.356Z,4.25
2022-11-05T11:22:13.718Z,3.85
2022-11-05T11:24:46.932Z,4.47
2022-11-05T11:27:17.560Z,4.07
2022-11-05T11:29:49.544Z,4.00
2022-11-05T11:32:18.926Z,4.13
2022-11-05T11:34:48.895Z,3.70
2022-11-05T11:37:26.961Z,3.70
2022-11-05T11:40:00.014Z,3.20
2022-11-05T11:42:32.636Z,3.20
2022-11-05T11:45:02.603Z,3.28
2022-11-05T11:47:30.385Z,3.28
2022-11-05T11:49:58.671Z,3.03
2022-11-05T11:52:33.591Z,2.80
2022-11-05T11:55:13.407Z,2.85
2022-11-05T11:57:51.810Z,3.33
2022-11-05T12:00:20.027Z,2.72
2022-11-05T12:03:03.172Z,3.40
2022-11-05T12:05:40.894Z,3.17
2022-11-05T12:08:10.996Z,3.08
2022-11-05T12:10:56.700Z,2.92
2022-11-05T12:13:27.078Z,2.80
2022-11-05T12:16:00.681Z,3.20
2022-11-05T12:18:39.239Z,3.35
2022-11-05T12:21:07.545Z,3.20
2022-11-05T12:23:44.614Z,2.90
2022-11-05T12:26:44.237Z,3.42
2022-11-05T12:29:35.894Z,3.58
2022-11-05T12:32:27.957Z,3.58
2022-11-05T12:35:07.192Z,3.85
2022-11-05T12:38:05.860Z,3.90
2022-11-05T12:40:57.548Z,4.10
2022-11-05T12:43:31.957Z,4.38
2022-11-05T12:46:20.738Z,4.13
2022-11-05T12:49:17.489Z,3.85
2022-11-05T12:51:59.763Z,4.00
2022-11-05T12:54:40.648Z,4.43
2022-11-05T12:57:08.746Z,4.22
2022-11-05T12:59:36.819Z,4.43
2022-11-05T13:02:16.842Z,4.50
2022-11-05T13:05:01.837Z,4.55
2022-11-05T13:07:32.507Z,4.20
2022-11-05T13:10:08.051Z,4.15
2022-11-05T13:12:37.114Z,3.70
2022-11-05T13:15:24.298Z,3.92
2022-11-05T13:17:53.756Z,3.78
2022-11-05T13:20:33.007Z,3.47
2022-11-05T13:23:18.977Z,4.00
2022-11-05T13:25:52.770Z,3.83
2022-11-05T13:29:03.625Z,3.75
2022-11-05T13:31:38.929Z,3.72
2022-11-05T13:34:12.595Z,4.15
2022-11-05T13:37:12.064Z,3.97
2022-11-05T13:39:49.856Z,3.88
2022-11-05T13:42:32.431Z,3.55
2022-11-05T13:45:41.037Z,3.55
2022-11-05T13:48:26.584Z,4.00
2022-11-05T13:51:02.541Z,3.08
2022-11-05T13:54:07.146Z,3.30
2022-11-05T13:57:00.970Z,2.92
2022-11-05T13:59:37.946Z,3.20
2022-11-05T14:02:19.643Z,3.10
2022-11-05T14:04:54.481Z,2.80
2022-11-05T14:07:33.095Z,3.00
2022-11-05T14:10:23.658Z,2.85
2022-11-05T14:12:51.672Z,2.83
2022-11-05T14:15:24.521Z,2.75
2022-11-05T14:18:33.394Z,2.58
2022-11-05T14:21:02.028Z,2.42
2022-11-05T14:23:48.861Z,2.60
2022-11-05T14:26:18.153Z,2.58
2022-11-05T14:29:04.317Z,2.53
2022-11-05T14:32:07.391Z,2.33
2022-11-05T14:35:04.001Z,2.60
2022-11-05T14:37:37.001Z,2.15
2022-11-05T14:40:36.159Z,2.78
2022-11-05T14:43:25.415Z,2.50
2022-11-05T14:46:02.909Z,2.40
2022-11-05T14:48:44.361Z,2.60
2022-11-05T14:51:38.746Z,2.33
2022-11-05T14:54:42.583Z,2.60
2022-11-05T14:57:13.408Z,2.53
2022-11-05T14:59:57.605Z,2.60
2022-11-05T15:02:33.407Z,2.63
2022-11-05T15:05:34.861Z,2.60
2022-11-05T15:08:26.827Z,2.88
2022-11-05T15:10:56.888Z,3.00
2022-11-05T15:13:34.910Z,3.08
2022-11-05T15:16:03.540Z,3.25
2022-11-05T15:18:36.549Z,3.63
2022-11-05T15:21:04.783Z,3.28
2022-11-05T15:23:44.740Z,3.30
2022-11-05T15:26:35.015Z,3.35
2022-11-05T15:29:02.156Z,3.50
2022-11-05T15:31:33.625Z,3.83
2022-11-05T15:34:19.036Z,3.80
2022-11-05T15:36:51.248Z,3.75
2022-11-05T15:39:29.571Z,4.22
2022-11-05T15:42:01.725Z,3.78
2022-11-05T15:44:29.817Z,4.28
2022-11-05T15:47:08.235Z,3.90
2022-11-05T15:49:35.384Z,4.45
2022-11-05T15:52:02.814Z,3.95
2022-11-05T15:54:31.203Z,4.80
2022-11-05T15:56:59.397Z,4.60
2022-11-05T15:59:27.514Z,5.07
2022-11-05T16:02:22.377Z,5.53
2022-11-05T16:07:16.816Z,5.85
2022-11-05T16:10:00.461Z,5.95
2022-11-05T16:12:30.323Z,6.22
2022-11-05T16:15:09.789Z,6.63
2022-11-05T16:17:39.900Z,6.93
2022-11-05T16:20:23.042Z,7.35
2022-11-05T16:23:23.677Z,7.72
2022-11-05T16:25:51.010Z,7.63
2022-11-05T16:28:29.544Z,8.73
2022-11-05T16:31:04.052Z,7.40
2022-11-05T16:36:02.198Z,8.63
2022-11-05T16:38:29.372Z,8.35
2022-11-05T16:40:56.828Z,8.73
2022-11-05T16:43:24.788Z,9.02
2022-11-05T16:45:58.382Z,8.73
2022-11-05T16:48:25.918Z,9.82
2022-11-05T16:50:53.205Z,9.68
2022-11-05T16:53:20.674Z,8.98
2022-11-05T16:55:48.042Z,9.15
2022-11-05T16:58:21.274Z,8.23
2022-11-05T17:00:49.765Z,8.63
2022-11-05T17:03:17.248Z,8.20
2022-11-05T17:05:44.468Z,7.88
2022-11-05T17:08:12.469Z,7.45
2022-11-05T17:10:40.125Z,7.05
2022-11-05T17:13:07.238Z,7.32
2022-11-05T17:15:35.605Z,7.47
2022-11-05T17:18:03.593Z,7.40
2022-11-05T17:20:41.065Z,7.57
2022-11-05T17:23:12.995Z,7.25
2022-11-05T17:25:41.182Z,7.10
2022-11-05T17:28:08.725Z,7.95
2022-11-05T17:30:36.492Z,7.20
2022-11-05T17:33:03.865Z,7.78
2022-11-05T17:35:31.199Z,7.18
2022-11-05T17:37:58.348Z,7.13
2022-11-05T17:40:25.781Z,7.65
2022-11-05T17:42:53.025Z,7.22
2022-11-05T17:45:20.246Z,7.78
2022-11-05T17:47:47.396Z,7.35
2022-11-05T17:50:16.984Z,7.55
2022-11-05T17:52:44.397Z,6.85
2022-11-05T17:55:16.644Z,7.15
2022-11-05T17:57:48.106Z,7.43
2022-11-05T18:00:22.924Z,7.50
2022-11-05T18:02:51.806Z,7.72
2022-11-05T18:05:19.054Z,7.88
2022-11-05T18:07:46.837Z,7.72
2022-11-05T18:10:14.147Z,7.93
2022-11-05T18:12:42.299Z,7.78
2022-11-05T18:15:10.122Z,7.55
2022-11-05T18:17:37.297Z,8.88
2022-11-05T18:20:10.642Z,8.45
2022-11-05T18:22:40.267Z,8.63
2022-11-05T18:25:11.060Z,9.80
2022-11-05T18:27:38.486Z,9.32
2022-11-05T18:30:08.862Z,9.98
2022-11-05T18:32:36.300Z,11.05
2022-11-05T18:35:03.846Z,9.98
2022-11-05T18:37:31.085Z,9.35
2022-11-05T18:39:58.359Z,8.55
2022-11-05T18:42:25.700Z,9.13
2022-11-05T18:44:52.875Z,8.35
2022-11-05T18:47:20.034Z,8.77
2022-11-05T18:49:47.196Z,8.30
2022-11-05T18:52:14.385Z,9.18
2022-11-05T18:54:41.566Z,8.70
2022-11-05T18:57:08.933Z,8.57
2022-11-05T18:59:38.539Z,8.07
2022-11-05T19:02:06.924Z,8.60
2022-11-05T19:04:35.959Z,8.88
2022-11-05T19:07:05.477Z,9.02
2022-11-05T19:09:36.956Z,8.82
2022-11-05T19:12:04.419Z,9.57
2022-11-05T19:14:31.847Z,9.07
2022-11-05T19:16:59.334Z,9.45
2022-11-05T19:19:26.540Z,9.73
2022-11-05T19:21:54.065Z,9.63
2022-11-05T19:24:26.386Z,9.02
2022-11-05T19:26:58.334Z,9.45
2022-11-05T19:29:25.862Z,9.73
2022-11-05T19:31:55.531Z,9.77
2022-11-05T19:34:23.049Z,9.95
2022-11-05T19:36:50.322Z,9.60
2022-11-05T19:39:17.459Z,10.10
2022-11-05T19:41:44.611Z,10.13
2022-11-05T19:44:11.920Z,9.55
2022-11-05T19:46:39.068Z,9.90
2022-11-05T19:49:06.509Z,10.68
2022-11-05T19:51:33.834Z,10.45
2022-11-05T19:54:01.532Z,10.27
2022-11-05T19:56:30.237Z,10.48
2022-11-05T19:58:57.616Z,10.48
2022-11-05T20:01:29.434Z,10.32
2022-11-05T20:04:02.368Z,9.75
2022-11-05T20:06:37.774Z,11.00
2022-11-05T20:09:21.229Z,11.68
2022-11-05T20:11:53.700Z,10.98
2022-11-05T20:14:24.177Z,11.00
2022-11-05T20:16:54.088Z,10.20
2022-11-05T20:19:23.918Z,10.73
2022-11-05T20:21:53.693Z,10.93
2022-11-05T20:24:24.915Z,10.68
2022-11-05T20:26:53.773Z,10.32
2022-11-05T20:29:21.480Z,10.50
2022-11-05T20:31:48.945Z,10.18
2022-11-05T20:34:16.424Z,9.85
2022-11-05T20:36:46.286Z,9.93
2022-11-05T20:39:13.576Z,9.75
2022-11-05T20:41:41.153Z,9.85
2022-11-05T20:44:08.566Z,9.57
2022-11-05T20:46:35.833Z,9.70
2022-11-05T20:49:03.325Z,9.50
2022-11-05T20:51:30.489Z,10.70
2022-11-05T20:54:00.410Z,10.35
2022-11-05T20:56:29.623Z,9.77
2022-11-05T20:59:00.085Z,10.07
2022-11-05T21:01:31.433Z,9.77
2022-11-05T21:03:59.673Z,10.32
2022-11-05T21:06:27.017Z,10.30
2022-11-05T21:08:54.230Z,10.25
2022-11-05T21:11:21.376Z,10.23
2022-11-05T21:13:48.619Z,10.38
2022-11-05T21:16:18.497Z,11.30
2022-11-05T21:18:46.407Z,11.93
2022-11-05T21:21:15.788Z,12.85
2022-11-05T21:23:43.011Z,13.10
2022-11-05T21:26:11.760Z,12.75
2022-11-05T21:28:39.596Z,11.35
2022-11-05T21:31:07.019Z,12.20
2022-11-05T21:33:34.348Z,12.38
2022-11-05T21:36:09.044Z,12.55
2022-11-05T21:38:36.345Z,11.52
2022-11-05T21:41:03.861Z,12.07
2022-11-05T21:43:31.199Z,11.80
2022-11-05T21:46:01.161Z,11.65
2022-11-05T21:48:28.473Z,12.95
2022-11-05T21:51:14.225Z,12.05
2022-11-05T21:54:00.377Z,12.27
2022-11-05T21:56:46.459Z,11.73
2022-11-05T21:59:42.471Z,12.65
2022-11-05T22:02:11.259Z,13.38
2022-11-05T22:04:46.322Z,13.20
2022-11-05T22:07:15.465Z,13.02
2022-11-05T22:09:42.736Z,13.07
2022-11-05T22:12:10.192Z,12.07
2022-11-05T22:14:37.488Z,12.63
2022-11-05T22:17:04.868Z,12.38
2022-11-05T22:19:32.477Z,13.07
2022-11-05T22:21:59.657Z,12.55
2022-11-05T22:24:31.699Z,12.95
2022-11-05T22:26:59.990Z,12.43
2022-11-05T22:29:27.416Z,13.43
2022-11-05T22:31:54.813Z,13.15
2022-11-05T22:34:22.236Z,12.48
2022-11-05T22:36:49.661Z,12.57
2022-11-05T22:39:16.958Z,12.40
2022-11-05T22:41:44.446Z,13.05
2022-11-05T22:44:14.018Z,12.43
2022-11-05T22:46:41.786Z,12.20
2022-11-05T22:49:09.023Z,13.35
2022-11-05T22:51:36.726Z,13.32
2022-11-05T22:54:04.001Z,12.63
2022-11-05T22:56:32.780Z,14.30
2022-11-05T22:59:00.189Z,15.65
2022-11-05T23:01:27.650Z,15.75
2022-11-05T23:03:56.019Z,14.40
2022-11-05T23:06:43.745Z,14.15
2022-11-05T23:09:46.656Z,13.68
2022-11-05T23:12:24.617Z,14.00
2022-11-05T23:14:52.371Z,12.27
2022-11-05T23:17:38.385Z,13.45
2022-11-05T23:20:25.388Z,12.82
2022-11-05T23:23:10.959Z,12.48
2022-11-05T23:25:38.105Z,12.55
2022-11-05T23:31:09.197Z,12.30
2022-11-05T23:33:36.368Z,13.13
2022-11-05T23:36:22.518Z,13.43
2022-11-05T23:38:49.671Z,13.45
2022-11-05T23:41:35.467Z,13.05
2022-11-05T23:44:21.156Z,12.23
2022-11-05T23:47:06.865Z,12.20
2022-11-05T23:49:34.192Z,12.20
2022-11-05T23:52:01.513Z,11.60
2022-11-05T23:54:29.414Z,12.20
2022-11-05T23:56:56.579Z,11.80
2022-11-05T23:59:23.717Z,11.95
